sensor_id;sensor_type;location;lat;lon;timestamp;temperature;humidity
10149;DHT22;5115;50.920;6.376;2023-04-01T00:00:19;10.70;99.90
10149;DHT22;5115;50.920;6.376;2023-04-01T00:02:46;10.70;99.90
10149;DHT22;5115;50.920;6.376;2023-04-01T00:05:12;10.70;99.90
10149;DHT22;5115;50.920;6.376;2023-04-01T00:07:39;10.70;99.90
10149;DHT22;5115;50.920;6.376;2023-04-01T00:10:06;10.70;99.90
10149;DHT22;5115;50.920;6.376;2023-04-01T00:12:32;10.70;99.90
10149;DHT22;5115;50.920;6.376;2023-04-01T00:14:58;10.70;99.90
10149;DHT22;5115;50.920;6.376;2023-04-01T00:17:23;10.70;99.90
10149;DHT22;5115;50.920;6.376;2023-04-01T00:19:49;10.70;99.90
10149;DHT22;5115;50.920;6.376;2023-04-01T00:22:15;10.70;99.90
10149;DHT22;5115;50.920;6.376;2023-04-01T00:24:40;10.70;99.90
10149;DHT22;5115;50.920;6.376;2023-04-01T00:27:06;10.60;99.90
10149;DHT22;5115;50.920;6.376;2023-04-01T00:29:33;10.70;99.90
10149;DHT22;5115;50.920;6.376;2023-04-01T00:31:58;11.80;99.90
10149;DHT22;5115;50.920;6.376;2023-04-01T00:34:24;11.30;99.90
10149;DHT22;5115;50.920;6.376;2023-04-01T00:36:51;10.80;99.90
10149;DHT22;5115;50.920;6.376;2023-04-01T00:39:18;10.80;99.90
10149;DHT22;5115;50.920;6.376;2023-04-01T00:41:43;11.00;99.90
10149;DHT22;5115;50.920;6.376;2023-04-01T00:44:19;10.80;99.90
10149;DHT22;5115;50.920;6.376;2023-04-01T00:46:45;11.70;99.90
10149;DHT22;5115;50.920;6.376;2023-04-01T00:49:12;10.80;99.90
10149;DHT22;5115;50.920;6.376;2023-04-01T00:51:39;10.70;99.90
10149;DHT22;5115;50.920;6.376;2023-04-01T00:54:07;10.70;99.90
10149;DHT22;5115;50.920;6.376;2023-04-01T00:56:39;10.70;99.90
10149;DHT22;5115;50.920;6.376;2023-04-01T00:59:11;10.70;99.90
10149;DHT22;5115;50.920;6.376;2023-04-01T01:01:38;10.70;99.90
10149;DHT22;5115;50.920;6.376;2023-04-01T01:04:04;10.80;99.90
10149;DHT22;5115;50.920;6.376;2023-04-01T01:30:10;10.50;99.90
10149;DHT22;5115;50.920;6.376;2023-04-01T01:33:01;10.50;99.90
10149;DHT22;5115;50.920;6.376;2023-04-01T01:35:46;10.40;99.90
10149;DHT22;5115;50.920;6.376;2023-04-01T01:38:17;10.50;99.90
10149;DHT22;5115;50.920;6.376;2023-04-01T01:40:46;11.90;99.90
10149;DHT22;5115;50.920;6.376;2023-04-01T01:43:16;10.50;99.90
10149;DHT22;5115;50.920;6.376;2023-04-01T01:45:47;11.30;99.90
10149;DHT22;5115;50.920;6.376;2023-04-01T01:48:14;11.20;99.90
10149;DHT22;5115;50.920;6.376;2023-04-01T01:50:46;10.60;99.90
10149;DHT22;5115;50.920;6.376;2023-04-01T01:53:13;10.60;99.90
10149;DHT22;5115;50.920;6.376;2023-04-01T01:55:41;10.60;99.90
10149;DHT22;5115;50.920;6.376;2023-04-01T01:58:24;10.60;99.90
10149;DHT22;5115;50.920;6.376;2023-04-01T02:00:54;10.60;99.90
10149;DHT22;5115;50.920;6.376;2023-04-01T02:03:23;10.60;99.90
10149;DHT22;5115;50.920;6.376;2023-04-01T02:05:52;10.60;99.90
10149;DHT22;5115;50.920;6.376;2023-04-01T02:08:25;10.60;99.90
10149;DHT22;5115;50.920;6.376;2023-04-01T02:10:59;10.60;99.90
10149;DHT22;5115;50.920;6.376;2023-04-01T02:13:40;10.70;99.90
10149;DHT22;5115;50.920;6.376;2023-04-01T02:16:31;10.60;99.90
10149;DHT22;5115;50.920;6.376;2023-04-01T02:18:58;11.80;99.90
10149;DHT22;5115;50.920;6.376;2023-04-01T02:21:27;12.20;99.90
10149;DHT22;5115;50.920;6.376;2023-04-01T02:23:56;10.70;99.90
10149;DHT22;5115;50.920;6.376;2023-04-01T02:26:24;10.60;99.90
10149;DHT22;5115;50.920;6.376;2023-04-01T02:28:52;10.60;99.90
10149;DHT22;5115;50.920;6.376;2023-04-01T02:31:18;10.70;99.90
10149;DHT22;5115;50.920;6.376;2023-04-01T02:33:44;10.60;99.90
10149;DHT22;5115;50.920;6.376;2023-04-01T02:36:13;10.60;99.90
10149;DHT22;5115;50.920;6.376;2023-04-01T02:38:40;10.60;99.90
10149;DHT22;5115;50.920;6.376;2023-04-01T02:41:05;10.60;99.90
10149;DHT22;5115;50.920;6.376;2023-04-01T02:43:31;11.20;99.90
10149;DHT22;5115;50.920;6.376;2023-04-01T02:45:57;10.60;99.90
10149;DHT22;5115;50.920;6.376;2023-04-01T02:48:23;10.60;99.90
10149;DHT22;5115;50.920;6.376;2023-04-01T02:50:49;10.60;99.90
10149;DHT22;5115;50.920;6.376;2023-04-01T02:53:15;10.60;99.90
10149;DHT22;5115;50.920;6.376;2023-04-01T02:55:40;12.00;99.90
10149;DHT22;5115;50.920;6.376;2023-04-01T02:58:06;10.60;99.90
10149;DHT22;5115;50.920;6.376;2023-04-01T03:00:32;10.60;99.90
10149;DHT22;5115;50.920;6.376;2023-04-01T03:02:58;10.70;99.90
10149;DHT22;5115;50.920;6.376;2023-04-01T03:05:23;11.50;99.90
10149;DHT22;5115;50.920;6.376;2023-04-01T03:07:49;10.70;99.90
10149;DHT22;5115;50.920;6.376;2023-04-01T03:10:15;10.70;99.90
10149;DHT22;5115;50.920;6.376;2023-04-01T03:12:41;10.70;99.90
10149;DHT22;5115;50.920;6.376;2023-04-01T03:15:06;11.20;99.90
10149;DHT22;5115;50.920;6.376;2023-04-01T03:17:32;10.70;99.90
10149;DHT22;5115;50.920;6.376;2023-04-01T03:19:58;10.70;99.90
10149;DHT22;5115;50.920;6.376;2023-04-01T03:22:23;10.60;99.90
10149;DHT22;5115;50.920;6.376;2023-04-01T03:24:49;10.60;99.90
10149;DHT22;5115;50.920;6.376;2023-04-01T03:27:15;10.50;99.90
10149;DHT22;5115;50.920;6.376;2023-04-01T03:29:41;11.50;99.90
10149;DHT22;5115;50.920;6.376;2023-04-01T03:32:06;10.60;99.90
10149;DHT22;5115;50.920;6.376;2023-04-01T03:34:32;10.60;99.90
10149;DHT22;5115;50.920;6.376;2023-04-01T03:36:58;10.60;99.90
10149;DHT22;5115;50.920;6.376;2023-04-01T03:39:23;11.90;99.90
10149;DHT22;5115;50.920;6.376;2023-04-01T03:41:49;10.50;99.90
10149;DHT22;5115;50.920;6.376;2023-04-01T03:44:15;11.80;99.90
10149;DHT22;5115;50.920;6.376;2023-04-01T03:46:40;11.70;99.90
10149;DHT22;5115;50.920;6.376;2023-04-01T03:49:07;10.40;99.90
10149;DHT22;5115;50.920;6.376;2023-04-01T03:51:40;10.50;99.90
10149;DHT22;5115;50.920;6.376;2023-04-01T03:54:06;10.50;99.90
10149;DHT22;5115;50.920;6.376;2023-04-01T03:56:32;10.50;99.90
10149;DHT22;5115;50.920;6.376;2023-04-01T03:58:57;10.60;99.90
10149;DHT22;5115;50.920;6.376;2023-04-01T04:01:23;11.00;99.90
10149;DHT22;5115;50.920;6.376;2023-04-01T04:03:49;10.60;99.90
10149;DHT22;5115;50.920;6.376;2023-04-01T04:06:17;11.10;99.90
10149;DHT22;5115;50.920;6.376;2023-04-01T04:08:43;10.60;99.90
10149;DHT22;5115;50.920;6.376;2023-04-01T04:11:09;10.60;99.90
10149;DHT22;5115;50.920;6.376;2023-04-01T04:13:35;11.40;99.90
10149;DHT22;5115;50.920;6.376;2023-04-01T04:16:02;10.60;99.90
10149;DHT22;5115;50.920;6.376;2023-04-01T04:18:28;10.60;99.90
10149;DHT22;5115;50.920;6.376;2023-04-01T04:20:53;9.60;99.90
10149;DHT22;5115;50.920;6.376;2023-04-01T04:23:19;10.50;99.90
10149;DHT22;5115;50.920;6.376;2023-04-01T04:25:56;10.50;99.90
10149;DHT22;5115;50.920;6.376;2023-04-01T04:28:22;10.50;99.90
10149;DHT22;5115;50.920;6.376;2023-04-01T04:30:47;10.50;99.90
10149;DHT22;5115;50.920;6.376;2023-04-01T04:33:13;10.50;99.90
10149;DHT22;5115;50.920;6.376;2023-04-01T04:35:39;10.40;99.90
10149;DHT22;5115;50.920;6.376;2023-04-01T04:38:04;10.50;99.90
10149;DHT22;5115;50.920;6.376;2023-04-01T04:40:30;10.50;99.90
10149;DHT22;5115;50.920;6.376;2023-04-01T04:42:55;10.60;99.90
10149;DHT22;5115;50.920;6.376;2023-04-01T04:45:21;10.50;99.90
10149;DHT22;5115;50.920;6.376;2023-04-01T04:47:46;11.60;99.90
10149;DHT22;5115;50.920;6.376;2023-04-01T04:50:12;10.50;99.90
10149;DHT22;5115;50.920;6.376;2023-04-01T04:52:38;10.60;99.90
10149;DHT22;5115;50.920;6.376;2023-04-01T04:55:04;10.60;99.90
10149;DHT22;5115;50.920;6.376;2023-04-01T04:57:29;10.60;99.90
10149;DHT22;5115;50.920;6.376;2023-04-01T04:59:55;10.60;99.90
10149;DHT22;5115;50.920;6.376;2023-04-01T05:02:21;10.60;99.90
10149;DHT22;5115;50.920;6.376;2023-04-01T05:04:46;10.90;99.90
10149;DHT22;5115;50.920;6.376;2023-04-01T05:07:12;11.70;99.90
10149;DHT22;5115;50.920;6.376;2023-04-01T05:09:37;11.10;99.90
10149;DHT22;5115;50.920;6.376;2023-04-01T05:12:03;10.50;99.90
10149;DHT22;5115;50.920;6.376;2023-04-01T05:14:28;10.40;99.90
10149;DHT22;5115;50.920;6.376;2023-04-01T05:16:54;12.00;99.90
10149;DHT22;5115;50.920;6.376;2023-04-01T05:19:20;10.50;99.90
10149;DHT22;5115;50.920;6.376;2023-04-01T05:21:45;9.50;99.90
10149;DHT22;5115;50.920;6.376;2023-04-01T05:24:11;10.50;99.90
10149;DHT22;5115;50.920;6.376;2023-04-01T05:26:36;11.10;99.90
10149;DHT22;5115;50.920;6.376;2023-04-01T05:29:04;10.40;99.90
10149;DHT22;5115;50.920;6.376;2023-04-01T05:31:29;10.40;99.90
10149;DHT22;5115;50.920;6.376;2023-04-01T05:33:55;10.60;99.90
10149;DHT22;5115;50.920;6.376;2023-04-01T05:36:21;10.40;99.90
10149;DHT22;5115;50.920;6.376;2023-04-01T05:38:47;10.40;99.90
10149;DHT22;5115;50.920;6.376;2023-04-01T05:41:14;10.50;99.90
10149;DHT22;5115;50.920;6.376;2023-04-01T05:43:39;10.50;99.90
10149;DHT22;5115;50.920;6.376;2023-04-01T05:46:06;10.60;99.90
10149;DHT22;5115;50.920;6.376;2023-04-01T05:48:33;10.60;99.90
10149;DHT22;5115;50.920;6.376;2023-04-01T05:51:00;12.00;99.90
10149;DHT22;5115;50.920;6.376;2023-04-01T05:53:26;11.50;99.90
10149;DHT22;5115;50.920;6.376;2023-04-01T05:55:51;10.70;99.90
10149;DHT22;5115;50.920;6.376;2023-04-01T05:58:17;11.20;99.90
10149;DHT22;5115;50.920;6.376;2023-04-01T06:00:42;10.60;99.90
10149;DHT22;5115;50.920;6.376;2023-04-01T06:03:08;10.60;99.90
10149;DHT22;5115;50.920;6.376;2023-04-01T06:05:42;10.60;99.90
10149;DHT22;5115;50.920;6.376;2023-04-01T06:08:13;10.70;99.90
10149;DHT22;5115;50.920;6.376;2023-04-01T06:11:03;10.80;99.90
10149;DHT22;5115;50.920;6.376;2023-04-01T06:19:45;10.80;99.90
10149;DHT22;5115;50.920;6.376;2023-04-01T06:22:26;10.50;99.90
10149;DHT22;5115;50.920;6.376;2023-04-01T06:36:22;10.70;99.90
10149;DHT22;5115;50.920;6.376;2023-04-01T06:47:22;10.80;99.90
10149;DHT22;5115;50.920;6.376;2023-04-01T06:50:28;11.00;99.90
10149;DHT22;5115;50.920;6.376;2023-04-01T06:53:10;10.80;99.90
10149;DHT22;5115;50.920;6.376;2023-04-01T06:59:05;10.80;99.90
10149;DHT22;5115;50.920;6.376;2023-04-01T07:01:16;10.80;99.90
10149;DHT22;5115;50.920;6.376;2023-04-01T07:03:55;10.80;99.90
10149;DHT22;5115;50.920;6.376;2023-04-01T07:09:21;10.80;99.90
10149;DHT22;5115;50.920;6.376;2023-04-01T07:11:47;10.70;99.90
10149;DHT22;5115;50.920;6.376;2023-04-01T07:14:22;10.80;99.90
10149;DHT22;5115;50.920;6.376;2023-04-01T07:17:20;10.80;99.90
10149;DHT22;5115;50.920;6.376;2023-04-01T07:19:57;10.90;99.90
10149;DHT22;5115;50.920;6.376;2023-04-01T07:22:51;10.90;99.90
10149;DHT22;5115;50.920;6.376;2023-04-01T07:25:18;10.90;99.90
10149;DHT22;5115;50.920;6.376;2023-04-01T07:27:46;10.90;99.90
10149;DHT22;5115;50.920;6.376;2023-04-01T07:30:21;10.90;99.90
10149;DHT22;5115;50.920;6.376;2023-04-01T07:33:08;11.00;99.90
10149;DHT22;5115;50.920;6.376;2023-04-01T07:38:39;10.90;99.90
10149;DHT22;5115;50.920;6.376;2023-04-01T07:41:27;10.90;99.90
10149;DHT22;5115;50.920;6.376;2023-04-01T07:46:43;10.80;99.90
10149;DHT22;5115;50.920;6.376;2023-04-01T07:51:59;10.90;99.90
10149;DHT22;5115;50.920;6.376;2023-04-01T07:57:21;12.20;99.90
10149;DHT22;5115;50.920;6.376;2023-04-01T08:00:15;10.90;99.90
10149;DHT22;5115;50.920;6.376;2023-04-01T08:08:23;12.20;99.90
10149;DHT22;5115;50.920;6.376;2023-04-01T08:13:47;12.10;99.90
10149;DHT22;5115;50.920;6.376;2023-04-01T08:16:34;11.70;99.90
10149;DHT22;5115;50.920;6.376;2023-04-01T08:19:15;10.90;99.90
10149;DHT22;5115;50.920;6.376;2023-04-01T08:21:52;10.90;99.90
10149;DHT22;5115;50.920;6.376;2023-04-01T08:24:38;10.90;99.90
10149;DHT22;5115;50.920;6.376;2023-04-01T08:27:28;11.00;99.90
10149;DHT22;5115;50.920;6.376;2023-04-01T08:30:02;10.90;99.90
10149;DHT22;5115;50.920;6.376;2023-04-01T08:32:39;12.30;99.90
10149;DHT22;5115;50.920;6.376;2023-04-01T08:35:07;10.80;99.90
10149;DHT22;5115;50.920;6.376;2023-04-01T08:37:37;10.90;99.90
10149;DHT22;5115;50.920;6.376;2023-04-01T08:43:23;10.90;99.90
10149;DHT22;5115;50.920;6.376;2023-04-01T08:46:05;11.00;99.90
10149;DHT22;5115;50.920;6.376;2023-04-01T08:48:43;11.10;99.90
10149;DHT22;5115;50.920;6.376;2023-04-01T08:51:43;11.20;99.90
10149;DHT22;5115;50.920;6.376;2023-04-01T08:54:25;11.20;99.90
10149;DHT22;5115;50.920;6.376;2023-04-01T09:05:31;11.20;99.90
10149;DHT22;5115;50.920;6.376;2023-04-01T09:16:51;11.10;99.90
10149;DHT22;5115;50.920;6.376;2023-04-01T09:30:33;11.40;99.90
10149;DHT22;5115;50.920;6.376;2023-04-01T09:36:22;11.40;99.90
10149;DHT22;5115;50.920;6.376;2023-04-01T09:48:19;11.40;99.90
10149;DHT22;5115;50.920;6.376;2023-04-01T09:51:00;11.30;99.90
10149;DHT22;5115;50.920;6.376;2023-04-01T09:56:19;12.70;99.90
10149;DHT22;5115;50.920;6.376;2023-04-01T10:07:34;11.60;99.90
10149;DHT22;5115;50.920;6.376;2023-04-01T10:10:26;11.60;99.90
10149;DHT22;5115;50.920;6.376;2023-04-01T10:13:18;11.60;99.90
10149;DHT22;5115;50.920;6.376;2023-04-01T10:18:47;11.70;99.90
10149;DHT22;5115;50.920;6.376;2023-04-01T10:46:45;11.90;99.90
10149;DHT22;5115;50.920;6.376;2023-04-01T10:58:28;11.90;99.90
10149;DHT22;5115;50.920;6.376;2023-04-01T11:05:04;11.90;99.90
10149;DHT22;5115;50.920;6.376;2023-04-01T11:16:13;12.00;99.90
10149;DHT22;5115;50.920;6.376;2023-04-01T11:26:58;11.90;99.90
10149;DHT22;5115;50.920;6.376;2023-04-01T11:29:40;12.00;99.90
10149;DHT22;5115;50.920;6.376;2023-04-01T11:40:56;12.30;99.90
10149;DHT22;5115;50.920;6.376;2023-04-01T11:43:34;12.40;99.90
10149;DHT22;5115;50.920;6.376;2023-04-01T11:46:15;12.40;99.90
10149;DHT22;5115;50.920;6.376;2023-04-01T11:51:36;13.10;99.90
10149;DHT22;5115;50.920;6.376;2023-04-01T11:57:09;12.50;99.90
10149;DHT22;5115;50.920;6.376;2023-04-01T12:00:02;12.40;99.90
10149;DHT22;5115;50.920;6.376;2023-04-01T12:03:02;12.40;99.90
10149;DHT22;5115;50.920;6.376;2023-04-01T12:05:43;12.40;99.90
10149;DHT22;5115;50.920;6.376;2023-04-01T12:14:08;12.40;99.90
10149;DHT22;5115;50.920;6.376;2023-04-01T12:16:47;12.30;99.90
10149;DHT22;5115;50.920;6.376;2023-04-01T12:24:47;12.50;99.90
10149;DHT22;5115;50.920;6.376;2023-04-01T12:33:16;12.80;99.90
10149;DHT22;5115;50.920;6.376;2023-04-01T12:36:19;13.00;99.90
10149;DHT22;5115;50.920;6.376;2023-04-01T12:41:59;12.80;99.90
10149;DHT22;5115;50.920;6.376;2023-04-01T12:44:33;12.80;99.90
10149;DHT22;5115;50.920;6.376;2023-04-01T12:47:31;14.30;99.90
10149;DHT22;5115;50.920;6.376;2023-04-01T12:50:16;12.70;99.90
10149;DHT22;5115;50.920;6.376;2023-04-01T12:53:12;12.70;99.90
10149;DHT22;5115;50.920;6.376;2023-04-01T12:55:42;12.60;99.90
10149;DHT22;5115;50.920;6.376;2023-04-01T12:58:59;14.00;99.90
10149;DHT22;5115;50.920;6.376;2023-04-01T13:01:29;12.50;99.90
10149;DHT22;5115;50.920;6.376;2023-04-01T13:09:34;12.50;99.90
10149;DHT22;5115;50.920;6.376;2023-04-01T13:17:53;12.70;99.90
10149;DHT22;5115;50.920;6.376;2023-04-01T13:20:42;12.10;99.90
10149;DHT22;5115;50.920;6.376;2023-04-01T13:23:32;12.60;99.90
10149;DHT22;5115;50.920;6.376;2023-04-01T13:26:07;12.60;99.90
10149;DHT22;5115;50.920;6.376;2023-04-01T13:28:47;12.60;99.90
10149;DHT22;5115;50.920;6.376;2023-04-01T13:37:22;12.70;99.90
10149;DHT22;5115;50.920;6.376;2023-04-01T13:40:30;12.80;99.90
10149;DHT22;5115;50.920;6.376;2023-04-01T13:48:36;13.20;99.90
10149;DHT22;5115;50.920;6.376;2023-04-01T13:51:29;12.70;99.90
10149;DHT22;5115;50.920;6.376;2023-04-01T13:56:42;12.80;99.90
10149;DHT22;5115;50.920;6.376;2023-04-01T13:59:20;12.80;99.90
10149;DHT22;5115;50.920;6.376;2023-04-01T14:04:46;12.90;99.90
10149;DHT22;5115;50.920;6.376;2023-04-01T14:10:07;12.80;99.90
10149;DHT22;5115;50.920;6.376;2023-04-01T14:12:57;12.60;99.90
10149;DHT22;5115;50.920;6.376;2023-04-01T14:15:41;12.60;99.90
10149;DHT22;5115;50.920;6.376;2023-04-01T14:24:08;12.70;99.90
10149;DHT22;5115;50.920;6.376;2023-04-01T14:35:46;12.60;99.90
10149;DHT22;5115;50.920;6.376;2023-04-01T14:47:03;13.40;99.90
10149;DHT22;5115;50.920;6.376;2023-04-01T14:49:41;12.50;99.90
10149;DHT22;5115;50.920;6.376;2023-04-01T14:52:24;12.50;99.90
10149;DHT22;5115;50.920;6.376;2023-04-01T14:54:53;12.50;99.90
10149;DHT22;5115;50.920;6.376;2023-04-01T14:57:28;14.00;99.90
10149;DHT22;5115;50.920;6.376;2023-04-01T15:00:12;12.50;99.90
10149;DHT22;5115;50.920;6.376;2023-04-01T15:02:48;12.60;99.90
10149;DHT22;5115;50.920;6.376;2023-04-01T15:16:27;12.40;99.90
10149;DHT22;5115;50.920;6.376;2023-04-01T15:22:04;12.20;99.90
10149;DHT22;5115;50.920;6.376;2023-04-01T15:27:37;12.30;99.90
10149;DHT22;5115;50.920;6.376;2023-04-01T15:35:46;12.20;99.90
10149;DHT22;5115;50.920;6.376;2023-04-01T15:38:41;12.10;99.90
10149;DHT22;5115;50.920;6.376;2023-04-01T15:43:49;12.10;99.90
10149;DHT22;5115;50.920;6.376;2023-04-01T15:46:43;12.40;99.90
10149;DHT22;5115;50.920;6.376;2023-04-01T15:52:11;12.00;99.90
10149;DHT22;5115;50.920;6.376;2023-04-01T16:00:19;12.00;99.90
10149;DHT22;5115;50.920;6.376;2023-04-01T16:08:54;12.00;99.90
10149;DHT22;5115;50.920;6.376;2023-04-01T16:11:42;12.00;99.90
10149;DHT22;5115;50.920;6.376;2023-04-01T16:19:44;13.30;99.90
10149;DHT22;5115;50.920;6.376;2023-04-01T16:22:21;12.00;99.90
10149;DHT22;5115;50.920;6.376;2023-04-01T16:27:51;13.20;99.90
10149;DHT22;5115;50.920;6.376;2023-04-01T16:33:32;11.70;99.90
10149;DHT22;5115;50.920;6.376;2023-04-01T16:44:56;11.60;99.90
10149;DHT22;5115;50.920;6.376;2023-04-01T16:47:31;11.60;99.90
10149;DHT22;5115;50.920;6.376;2023-04-01T16:50:19;11.60;99.90
10149;DHT22;5115;50.920;6.376;2023-04-01T16:53:13;11.60;99.90
10149;DHT22;5115;50.920;6.376;2023-04-01T16:58:42;11.50;99.90
10149;DHT22;5115;50.920;6.376;2023-04-01T17:01:31;11.40;99.90
10149;DHT22;5115;50.920;6.376;2023-04-01T17:04:30;11.30;99.90
10149;DHT22;5115;50.920;6.376;2023-04-01T17:07:33;11.30;99.90
10149;DHT22;5115;50.920;6.376;2023-04-01T17:13:16;11.40;99.90
10149;DHT22;5115;50.920;6.376;2023-04-01T17:16:10;11.30;99.90
10149;DHT22;5115;50.920;6.376;2023-04-01T17:19:17;11.30;99.90
10149;DHT22;5115;50.920;6.376;2023-04-01T17:25:24;11.10;99.90
10149;DHT22;5115;50.920;6.376;2023-04-01T17:28:05;11.10;99.90
10149;DHT22;5115;50.920;6.376;2023-04-01T17:30:38;11.10;99.90
10149;DHT22;5115;50.920;6.376;2023-04-01T17:33:37;11.10;99.90
10149;DHT22;5115;50.920;6.376;2023-04-01T17:36:16;11.10;99.90
10149;DHT22;5115;50.920;6.376;2023-04-01T17:42:04;11.20;99.90
10149;DHT22;5115;50.920;6.376;2023-04-01T17:45:00;11.30;99.90
10149;DHT22;5115;50.920;6.376;2023-04-01T17:47:31;11.40;99.90
10149;DHT22;5115;50.920;6.376;2023-04-01T17:52:43;11.30;99.90
10149;DHT22;5115;50.920;6.376;2023-04-01T18:01:10;11.10;99.90
10149;DHT22;5115;50.920;6.376;2023-04-01T18:06:33;10.90;99.90
10149;DHT22;5115;50.920;6.376;2023-04-01T18:14:58;11.00;99.90
10149;DHT22;5115;50.920;6.376;2023-04-01T18:17:46;10.90;99.90
10149;DHT22;5115;50.920;6.376;2023-04-01T18:23:29;10.90;99.90
10149;DHT22;5115;50.920;6.376;2023-04-01T18:26:12;10.90;99.90
10149;DHT22;5115;50.920;6.376;2023-04-01T18:28:54;10.80;99.90
10149;DHT22;5115;50.920;6.376;2023-04-01T18:31:25;11.00;99.90
10149;DHT22;5115;50.920;6.376;2023-04-01T18:34:02;11.00;99.90
10149;DHT22;5115;50.920;6.376;2023-04-01T18:36:47;11.00;99.90
10149;DHT22;5115;50.920;6.376;2023-04-01T18:39:35;11.00;99.90
10149;DHT22;5115;50.920;6.376;2023-04-01T18:42:46;10.30;99.90
10149;DHT22;5115;50.920;6.376;2023-04-01T18:45:39;10.90;99.90
10149;DHT22;5115;50.920;6.376;2023-04-01T18:51:34;10.80;99.90
10149;DHT22;5115;50.920;6.376;2023-04-01T18:54:11;12.50;99.90
10149;DHT22;5115;50.920;6.376;2023-04-01T18:56:40;10.70;99.90
10149;DHT22;5115;50.920;6.376;2023-04-01T18:59:37;10.60;99.90
10149;DHT22;5115;50.920;6.376;2023-04-01T19:02:43;10.60;99.90
10149;DHT22;5115;50.920;6.376;2023-04-01T19:05:26;10.60;99.90
10149;DHT22;5115;50.920;6.376;2023-04-01T19:07:55;10.60;99.90
10149;DHT22;5115;50.920;6.376;2023-04-01T19:21:16;10.60;99.90
10149;DHT22;5115;50.920;6.376;2023-04-01T19:29:27;10.70;99.90
10149;DHT22;5115;50.920;6.376;2023-04-01T19:32:12;11.90;99.90
10149;DHT22;5115;50.920;6.376;2023-04-01T19:37:34;11.80;99.90
10149;DHT22;5115;50.920;6.376;2023-04-01T19:43:00;10.70;99.90
10149;DHT22;5115;50.920;6.376;2023-04-01T19:45:46;10.70;99.90
10149;DHT22;5115;50.920;6.376;2023-04-01T19:48:27;10.70;99.90
10149;DHT22;5115;50.920;6.376;2023-04-01T19:51:09;10.70;99.90
10149;DHT22;5115;50.920;6.376;2023-04-01T19:53:58;10.60;99.90
10149;DHT22;5115;50.920;6.376;2023-04-01T19:56:41;10.70;99.90
10149;DHT22;5115;50.920;6.376;2023-04-01T19:59:24;10.70;99.90
10149;DHT22;5115;50.920;6.376;2023-04-01T20:04:44;11.40;99.90
10149;DHT22;5115;50.920;6.376;2023-04-01T20:10:23;10.70;99.90
10149;DHT22;5115;50.920;6.376;2023-04-01T20:13:38;10.70;99.90
10149;DHT22;5115;50.920;6.376;2023-04-01T20:16:09;10.70;99.90
10149;DHT22;5115;50.920;6.376;2023-04-01T20:18:48;11.90;99.90
10149;DHT22;5115;50.920;6.376;2023-04-01T20:21:27;10.70;99.90
10149;DHT22;5115;50.920;6.376;2023-04-01T20:23:57;10.60;99.90
10149;DHT22;5115;50.920;6.376;2023-04-01T20:26:40;10.60;99.90
10149;DHT22;5115;50.920;6.376;2023-04-01T20:40:38;10.60;99.90
10149;DHT22;5115;50.920;6.376;2023-04-01T20:49:57;10.60;99.90
10149;DHT22;5115;50.920;6.376;2023-04-01T20:52:29;10.60;99.90
10149;DHT22;5115;50.920;6.376;2023-04-01T20:55:21;10.60;99.90
10149;DHT22;5115;50.920;6.376;2023-04-01T21:00:51;10.60;99.90
10149;DHT22;5115;50.920;6.376;2023-04-01T21:03:52;10.60;99.90
10149;DHT22;5115;50.920;6.376;2023-04-01T21:06:42;10.60;99.90
10149;DHT22;5115;50.920;6.376;2023-04-01T21:12:06;10.00;99.90
10149;DHT22;5115;50.920;6.376;2023-04-01T21:14:48;11.30;99.90
10149;DHT22;5115;50.920;6.376;2023-04-01T21:20:49;11.00;99.90
10149;DHT22;5115;50.920;6.376;2023-04-01T21:26:05;10.60;99.90
10149;DHT22;5115;50.920;6.376;2023-04-01T21:28:42;10.70;99.90
10149;DHT22;5115;50.920;6.376;2023-04-01T21:34:02;11.10;99.90
10149;DHT22;5115;50.920;6.376;2023-04-01T21:53:09;11.40;99.90
10149;DHT22;5115;50.920;6.376;2023-04-01T22:07:23;10.50;99.90
10149;DHT22;5115;50.920;6.376;2023-04-01T22:15:08;10.40;99.90
10149;DHT22;5115;50.920;6.376;2023-04-01T22:17:45;11.00;99.90
10149;DHT22;5115;50.920;6.376;2023-04-01T22:28:07;10.30;99.90
10149;DHT22;5115;50.920;6.376;2023-04-01T22:30:50;10.20;99.90
10149;DHT22;5115;50.920;6.376;2023-04-01T22:41:51;9.90;99.90
10149;DHT22;5115;50.920;6.376;2023-04-01T22:50:40;9.80;99.90
10149;DHT22;5115;50.920;6.376;2023-04-01T22:55:40;10.60;99.90
10149;DHT22;5115;50.920;6.376;2023-04-01T22:58:18;11.10;99.90
10149;DHT22;5115;50.920;6.376;2023-04-01T23:00:54;9.90;99.90
10149;DHT22;5115;50.920;6.376;2023-04-01T23:03:25;9.70;99.90
10149;DHT22;5115;50.920;6.376;2023-04-01T23:05:55;9.70;99.90
10149;DHT22;5115;50.920;6.376;2023-04-01T23:11:55;9.60;99.90
10149;DHT22;5115;50.920;6.376;2023-04-01T23:14:35;9.60;99.90
10149;DHT22;5115;50.920;6.376;2023-04-01T23:17:12;9.60;99.90
10149;DHT22;5115;50.920;6.376;2023-04-01T23:25:44;9.50;99.90
10149;DHT22;5115;50.920;6.376;2023-04-01T23:36:02;9.40;99.90
10149;DHT22;5115;50.920;6.376;2023-04-01T23:38:36;9.40;99.90
10149;DHT22;5115;50.920;6.376;2023-04-01T23:41:03;9.40;99.90
10149;DHT22;5115;50.920;6.376;2023-04-01T23:43:40;10.30;99.90
10149;DHT22;5115;50.920;6.376;2023-04-01T23:46:07;9.40;99.90
10149;DHT22;5115;50.920;6.376;2023-04-01T23:48:39;10.00;99.90
10149;DHT22;5115;50.920;6.376;2023-04-01T23:51:14;9.20;99.90
10149;DHT22;5115;50.920;6.376;2023-04-01T23:53:47;10.20;99.90
10149;DHT22;5115;50.920;6.376;2023-04-01T23:56:17;9.90;99.90
10149;DHT22;5115;50.920;6.376;2023-04-01T23:58:47;10.20;99.90
